Time;durP1;ratioP1;P1;durP2;ratioP2;P2;SDS_P1;SDS_P2;PMS_P1;PMS_P2;Temp;Humidity;BMP_temperature;BMP_pressure;BME280_temperature;BME280_humidity;BME280_pressure;Samples;Min_cycle;Max_cycle;Signal;HPM_P1;HPM_P2
2023/12/30 00:02:10;;;;;;;;;;;;;;;9.78;84.90;100215.28;4983966;28;19940;-71
2023/12/30 00:05:14;;;;;;;;;;;;;;;9.72;84.14;100205.19;4995245;28;19933;-71
2023/12/30 00:08:17;;;;;;;;;;;;;;;9.73;83.96;100217.31;4995579;28;20052;-70
2023/12/30 00:11:20;;;;;;;;;;;;;;;9.80;84.19;100223.91;4992252;28;20005;-71
2023/12/30 00:14:23;;;;;;;;;;;;;;;9.78;84.02;100220.53;4995526;28;20047;-71
2023/12/30 00:17:26;;;;;;;;;;;;;;;9.98;83.38;100225.50;4993718;28;20009;-71
2023/12/30 00:20:29;;;;;;;;;;;;;;;9.92;82.61;100223.25;4995016;28;20053;-71
2023/12/30 00:23:35;;;;;;;;;;;;;;;9.97;81.91;100229.03;4994822;28;20065;-71
2023/12/30 00:26:38;;;;;;;;;;;;;;;9.99;81.81;100219.38;4994854;28;19940;-70
2023/12/30 00:29:46;;;;;;;;;;;;;;;9.76;81.27;100219.75;4994237;28;19921;-71
2023/12/30 00:32:49;;;;;;;;;;;;;;;9.70;81.68;100226.16;4994329;28;19971;-71
2023/12/30 00:35:52;;;;;;;;;;;;;;;9.64;81.56;100230.88;4982317;28;20032;-71
2023/12/30 00:38:56;;;;;;;;;;;;;;;9.46;81.23;100233.50;4981766;28;19920;-71
2023/12/30 00:41:59;;;;;;;;;;;;;;;9.31;81.16;100229.09;4982521;28;19920;-71
2023/12/30 00:45:03;;;;;;;;;;;;;;;9.27;80.64;100236.22;4990038;28;20420;-71
2023/12/30 00:48:06;;;;;;;;;;;;;;;9.31;80.91;100229.91;4992837;28;19921;-71
2023/12/30 00:51:09;;;;;;;;;;;;;;;9.41;80.04;100230.31;4979616;28;19925;-71
2023/12/30 00:54:13;;;;;;;;;;;;;;;9.44;79.71;100229.28;4991997;28;19971;-71
2023/12/30 00:57:16;;;;;;;;;;;;;;;9.53;80.05;100234.88;4976157;28;19920;-71
2023/12/30 01:00:19;;;;;;;;;;;;;;;9.58;79.66;100241.63;4975052;28;19937;-71
2023/12/30 01:03:22;;;;;;;;;;;;;;;9.47;79.48;100229.13;4972646;28;19925;-71
2023/12/30 01:06:25;;;;;;;;;;;;;;;9.53;79.21;100232.25;4986172;28;20505;-71
2023/12/30 01:09:28;;;;;;;;;;;;;;;9.61;78.72;100229.25;4985249;28;19960;-71
2023/12/30 01:12:31;;;;;;;;;;;;;;;9.49;78.62;100254.22;4973322;28;19924;-71
2023/12/30 01:15:35;;;;;;;;;;;;;;;9.47;78.51;100256.06;4980948;28;19921;-71
2023/12/30 01:18:37;;;;;;;;;;;;;;;9.47;77.84;100260.44;4972979;28;20015;-71
2023/12/30 01:21:40;;;;;;;;;;;;;;;9.48;77.72;100252.56;4975450;28;20013;-71
2023/12/30 01:24:43;;;;;;;;;;;;;;;9.63;78.04;100250.03;4973866;28;19925;-71
2023/12/30 01:27:46;;;;;;;;;;;;;;;9.54;77.44;100244.41;4975430;28;19921;-71
2023/12/30 01:30:51;;;;;;;;;;;;;;;9.50;77.34;100260.28;4975353;28;20294;-70
2023/12/30 01:33:54;;;;;;;;;;;;;;;9.60;76.78;100253.66;4973999;28;20305;-71
2023/12/30 01:36:57;;;;;;;;;;;;;;;9.76;76.91;100271.97;4975480;28;19968;-71
2023/12/30 01:40:02;;;;;;;;;;;;;;;9.71;76.34;100253.13;4963138;28;19921;-71
2023/12/30 01:43:21;;;;;;;;;;;;;;;9.67;76.36;100267.25;4974980;28;20424;-71
2023/12/30 01:46:24;;;;;;;;;;;;;;;9.74;76.30;100279.06;4973634;28;20380;-71
2023/12/30 01:49:28;;;;;;;;;;;;;;;9.72;76.41;100281.72;4963067;28;19920;-71
2023/12/30 01:52:32;;;;;;;;;;;;;;;9.65;76.15;100287.38;4974920;28;19921;-71
2023/12/30 01:55:37;;;;;;;;;;;;;;;9.70;76.37;100304.50;4974739;28;20326;-71
2023/12/30 01:58:40;;;;;;;;;;;;;;;9.74;76.26;100307.78;4955979;28;19929;-71
2023/12/30 02:01:44;;;;;;;;;;;;;;;9.66;75.76;100309.94;4944436;29;19921;-71
2023/12/30 02:04:47;;;;;;;;;;;;;;;9.70;75.55;100304.50;4955979;28;19942;-71
2023/12/30 02:07:50;;;;;;;;;;;;;;;9.70;75.78;100308.84;4955870;28;20409;-71
2023/12/30 02:10:53;;;;;;;;;;;;;;;9.65;75.96;100310.88;4955896;28;19920;-71
2023/12/30 02:13:56;;;;;;;;;;;;;;;9.63;75.75;100317.91;4955551;28;19925;-71
2023/12/30 02:16:59;;;;;;;;;;;;;;;9.63;75.76;100321.38;4955742;28;20000;-71
2023/12/30 02:20:02;;;;;;;;;;;;;;;9.55;75.92;100316.56;4944195;29;20405;-71
2023/12/30 02:23:05;;;;;;;;;;;;;;;9.64;75.86;100322.25;4955556;28;19921;-71
2023/12/30 02:26:08;;;;;;;;;;;;;;;9.61;75.54;100311.97;4955621;28;19920;-71
2023/12/30 02:29:11;;;;;;;;;;;;;;;9.57;75.60;100319.06;4955597;28;19920;-71
2023/12/30 02:32:15;;;;;;;;;;;;;;;9.62;75.30;100303.19;4955526;28;19925;-71
2023/12/30 02:35:18;;;;;;;;;;;;;;;9.52;75.56;100310.66;4943758;28;20008;-71
2023/12/30 02:38:21;;;;;;;;;;;;;;;9.46;75.80;100298.75;4943520;28;20404;-71
2023/12/30 02:41:24;;;;;;;;;;;;;;;9.46;76.04;100296.16;4943491;29;20013;-71
2023/12/30 02:44:27;;;;;;;;;;;;;;;9.48;75.75;100309.97;4955222;28;19925;-71
2023/12/30 02:47:30;;;;;;;;;;;;;;;9.53;75.72;100313.16;4955393;28;19921;-71
2023/12/30 02:50:33;;;;;;;;;;;;;;;9.49;75.71;100318.63;4955389;28;20455;-71
2023/12/30 02:53:36;;;;;;;;;;;;;;;9.49;75.52;100314.25;4955271;28;19921;-71
2023/12/30 02:56:39;;;;;;;;;;;;;;;9.57;75.58;100310.41;4955255;28;19920;-71
2023/12/30 02:59:42;;;;;;;;;;;;;;;9.50;75.57;100310.72;4955239;28;20423;-71
2023/12/30 03:02:44;;;;;;;;;;;;;;;9.45;76.09;100315.34;4943587;28;20009;-71
2023/12/30 03:05:47;;;;;;;;;;;;;;;9.60;75.71;100310.25;4943332;28;19973;-71
2023/12/30 03:08:50;;;;;;;;;;;;;;;9.57;75.71;100318.22;4955084;28;19922;-71
2023/12/30 03:11:53;;;;;;;;;;;;;;;9.48;75.45;100323.03;4955409;28;19969;-71
2023/12/30 03:14:57;;;;;;;;;;;;;;;9.43;75.86;100318.94;4943276;28;19977;-70
2023/12/30 03:17:59;;;;;;;;;;;;;;;9.44;76.00;100324.06;4955082;28;19921;-70
2023/12/30 03:21:03;;;;;;;;;;;;;;;9.58;75.75;100326.00;4943143;29;19968;-71
2023/12/30 03:24:06;;;;;;;;;;;;;;;9.67;75.55;100329.91;4943026;28;19925;-71
2023/12/30 03:27:09;;;;;;;;;;;;;;;9.80;75.17;100335.34;4955032;28;19937;-71
2023/12/30 03:30:12;;;;;;;;;;;;;;;9.71;75.18;100341.88;4954973;28;20064;-71
2023/12/30 03:33:16;;;;;;;;;;;;;;;9.68;75.24;100336.81;4954957;28;20330;-71
2023/12/30 03:36:19;;;;;;;;;;;;;;;9.78;75.12;100336.25;4954869;28;19920;-71
2023/12/30 03:39:22;;;;;;;;;;;;;;;9.80;74.65;100333.56;4954950;29;20094;-70
2023/12/30 03:42:27;;;;;;;;;;;;;;;9.58;75.01;100338.22;4942935;28;20397;-71
2023/12/30 03:45:29;;;;;;;;;;;;;;;9.43;75.05;100340.66;4943223;28;20342;-71
2023/12/30 03:48:32;;;;;;;;;;;;;;;9.46;75.16;100332.69;4943174;29;19922;-71
2023/12/30 03:51:36;;;;;;;;;;;;;;;9.52;75.21;100332.38;4942998;29;20341;-70
2023/12/30 03:54:40;;;;;;;;;;;;;;;9.42;75.14;100323.31;4955068;28;19942;-71
2023/12/30 03:57:42;;;;;;;;;;;;;;;9.32;75.19;100325.56;4957799;28;19920;-71
2023/12/30 04:00:46;;;;;;;;;;;;;;;9.31;75.26;100328.22;4946660;28;20330;-71
2023/12/30 04:03:48;;;;;;;;;;;;;;;9.34;75.51;100337.69;4958053;28;20370;-71
2023/12/30 04:06:52;;;;;;;;;;;;;;;9.39;75.79;100326.09;4946271;28;19984;-71
2023/12/30 04:09:55;;;;;;;;;;;;;;;9.41;75.26;100332.09;4958096;28;19925;-71
2023/12/30 04:12:58;;;;;;;;;;;;;;;9.54;75.48;100334.91;4958036;29;19925;-71
2023/12/30 04:16:01;;;;;;;;;;;;;;;9.51;75.69;100330.69;4946032;28;19921;-71
2023/12/30 04:19:04;;;;;;;;;;;;;;;9.54;75.41;100335.75;4946056;28;20342;-71
2023/12/30 04:22:06;;;;;;;;;;;;;;;9.40;76.29;100333.00;4945886;28;20008;-71
2023/12/30 04:25:10;;;;;;;;;;;;;;;9.54;76.00;100332.31;4945876;29;19926;-71
2023/12/30 04:28:12;;;;;;;;;;;;;;;9.61;75.69;100325.84;4957816;28;19938;-71
2023/12/30 04:31:16;;;;;;;;;;;;;;;9.65;75.36;100326.53;4957694;28;19937;-71
2023/12/30 04:34:19;;;;;;;;;;;;;;;9.44;76.04;100337.13;4957701;28;19921;-71
2023/12/30 04:37:22;;;;;;;;;;;;;;;9.49;76.17;100332.53;4957572;28;20017;-71
2023/12/30 04:40:25;;;;;;;;;;;;;;;9.60;76.41;100342.41;4945695;28;19922;-71
2023/12/30 04:43:28;;;;;;;;;;;;;;;9.67;76.12;100353.41;4957323;28;19972;-71
2023/12/30 04:46:31;;;;;;;;;;;;;;;9.53;76.30;100338.44;4945494;28;19977;-71
2023/12/30 04:49:35;;;;;;;;;;;;;;;9.76;76.28;100347.69;4945543;28;19925;-71
2023/12/30 04:52:38;;;;;;;;;;;;;;;9.71;75.61;100347.09;4945386;28;19921;-71
2023/12/30 04:55:41;;;;;;;;;;;;;;;9.71;75.78;100345.31;4945637;28;19969;-71
2023/12/30 04:58:44;;;;;;;;;;;;;;;9.70;75.39;100348.88;4957171;28;19921;-70
2023/12/30 05:01:48;;;;;;;;;;;;;;;9.60;75.64;100339.78;4945261;28;20413;-71
2023/12/30 05:04:51;;;;;;;;;;;;;;;9.43;75.95;100345.88;4957019;28;19928;-72
2023/12/30 05:07:54;;;;;;;;;;;;;;;9.38;76.09;100347.91;4945111;28;20281;-70
2023/12/30 05:10:57;;;;;;;;;;;;;;;9.47;75.70;100347.41;4956959;28;19973;-71
2023/12/30 05:14:01;;;;;;;;;;;;;;;9.35;76.09;100353.28;4956755;28;19945;-71
2023/12/30 05:17:04;;;;;;;;;;;;;;;9.38;75.85;100366.16;4956888;28;19961;-71
2023/12/30 05:20:08;;;;;;;;;;;;;;;9.17;76.27;100362.00;4956791;28;20006;-70
2023/12/30 05:23:11;;;;;;;;;;;;;;;9.32;75.88;100366.47;4956726;28;20405;-71
2023/12/30 05:26:14;;;;;;;;;;;;;;;9.25;75.40;100378.09;4956782;28;19929;-70
2023/12/30 05:29:17;;;;;;;;;;;;;;;9.36;75.32;100373.22;4956671;28;19994;-71
2023/12/30 05:32:22;;;;;;;;;;;;;;;9.41;74.71;100370.38;4956653;28;19921;-71
2023/12/30 05:35:25;;;;;;;;;;;;;;;9.32;74.98;100382.13;4956511;28;19922;-71
2023/12/30 05:38:27;;;;;;;;;;;;;;;9.22;74.69;100379.13;4956440;28;19921;-71
2023/12/30 05:41:30;;;;;;;;;;;;;;;9.19;74.48;100384.50;4956356;28;19941;-71
2023/12/30 05:44:34;;;;;;;;;;;;;;;9.10;74.77;100381.47;4956314;28;20289;-71
2023/12/30 05:47:37;;;;;;;;;;;;;;;9.07;75.09;100383.31;4956292;28;19922;-71
2023/12/30 05:50:40;;;;;;;;;;;;;;;9.12;74.98;100405.72;4956146;28;19921;-70
2023/12/30 05:53:43;;;;;;;;;;;;;;;9.12;75.02;100400.50;4956121;28;20429;-70
2023/12/30 05:56:46;;;;;;;;;;;;;;;9.08;74.98;100416.28;4956073;28;19921;-70
2023/12/30 05:59:49;;;;;;;;;;;;;;;9.10;75.09;100413.63;4956064;28;19989;-70
2023/12/30 06:02:52;;;;;;;;;;;;;;;9.08;75.29;100418.91;4956033;28;19922;-70
2023/12/30 06:05:57;;;;;;;;;;;;;;;9.03;75.17;100420.03;4954367;28;19953;-70
2023/12/30 06:09:00;;;;;;;;;;;;;;;9.16;75.39;100420.31;4953512;29;19921;-71
2023/12/30 06:12:03;;;;;;;;;;;;;;;9.26;75.30;100418.94;4955630;29;19986;-71
2023/12/30 06:15:07;;;;;;;;;;;;;;;9.29;75.14;100421.41;4955853;29;19969;-71
2023/12/30 06:18:10;;;;;;;;;;;;;;;9.34;74.86;100422.00;4955767;28;20390;-71
2023/12/30 06:21:12;;;;;;;;;;;;;;;9.44;74.74;100428.47;4955731;28;19961;-71
2023/12/30 06:24:16;;;;;;;;;;;;;;;9.43;73.97;100421.56;4955780;28;20297;-71
2023/12/30 06:27:20;;;;;;;;;;;;;;;9.36;74.16;100430.63;4955776;28;19922;-71
2023/12/30 06:30:23;;;;;;;;;;;;;;;9.34;74.15;100436.81;4955686;28;20278;-71
2023/12/30 06:33:26;;;;;;;;;;;;;;;9.40;74.11;100437.38;4955569;28;19969;-69
2023/12/30 06:36:29;;;;;;;;;;;;;;;9.50;74.05;100438.59;4955368;28;19942;-71
2023/12/30 06:39:33;;;;;;;;;;;;;;;9.59;73.64;100441.69;4955507;29;19942;-71
2023/12/30 06:42:36;;;;;;;;;;;;;;;9.49;73.80;100441.31;4955335;28;19957;-71
2023/12/30 06:45:39;;;;;;;;;;;;;;;9.61;73.64;100443.31;4955377;28;19925;-71
2023/12/30 06:48:42;;;;;;;;;;;;;;;9.66;73.27;100441.31;4955356;28;19921;-71
2023/12/30 06:51:45;;;;;;;;;;;;;;;9.62;73.43;100457.22;4964173;28;20453;-71
2023/12/30 06:54:49;;;;;;;;;;;;;;;9.71;73.35;100448.94;4969635;28;19925;-72
2023/12/30 06:57:53;;;;;;;;;;;;;;;9.55;73.50;100447.06;4974781;28;19921;-71
2023/12/30 07:00:57;;;;;;;;;;;;;;;9.50;73.79;100443.81;4973441;28;20397;-72
2023/12/30 07:04:00;;;;;;;;;;;;;;;9.63;73.64;100449.28;4972177;28;19925;-72
2023/12/30 07:07:03;;;;;;;;;;;;;;;9.69;73.54;100448.97;4972713;28;20353;-72
2023/12/30 07:10:06;;;;;;;;;;;;;;;9.78;73.49;100442.47;4967739;28;20269;-71
2023/12/30 07:13:11;;;;;;;;;;;;;;;9.83;73.28;100458.75;4970563;28;19972;-72
2023/12/30 07:16:15;;;;;;;;;;;;;;;9.88;73.14;100463.75;4971655;28;19921;-72
2023/12/30 07:19:19;;;;;;;;;;;;;;;9.73;73.35;100475.78;4974387;28;19923;-72
2023/12/30 07:22:22;;;;;;;;;;;;;;;9.92;73.89;100480.94;4962641;28;20444;-72
2023/12/30 07:25:25;;;;;;;;;;;;;;;9.96;73.22;100488.56;4974209;28;19929;-72
2023/12/30 07:28:29;;;;;;;;;;;;;;;10.01;73.15;100491.75;4973830;28;20379;-72
2023/12/30 07:31:33;;;;;;;;;;;;;;;10.01;72.88;100483.94;4974962;28;20425;-72
2023/12/30 07:34:35;;;;;;;;;;;;;;;9.76;73.27;100493.91;4976646;28;19921;-72
2023/12/30 07:37:38;;;;;;;;;;;;;;;9.64;73.56;100491.94;4977961;28;19921;-71
2023/12/30 07:40:41;;;;;;;;;;;;;;;9.69;73.75;100493.38;4978262;28;19986;-72
2023/12/30 07:43:45;;;;;;;;;;;;;;;9.81;73.43;100491.94;4976746;28;20310;-70
2023/12/30 07:46:48;;;;;;;;;;;;;;;9.83;73.95;100495.31;4976308;28;19925;-71
2023/12/30 07:49:52;;;;;;;;;;;;;;;10.00;74.11;100497.09;4977818;28;19921;-69
2023/12/30 07:52:55;;;;;;;;;;;;;;;10.12;74.06;100506.06;4977586;28;20289;-70
2023/12/30 07:55:58;;;;;;;;;;;;;;;10.17;73.90;100512.75;4977717;28;19961;-70
2023/12/30 07:59:01;;;;;;;;;;;;;;;10.25;74.06;100507.13;4977784;28;19921;-73
2023/12/30 08:02:05;;;;;;;;;;;;;;;10.33;74.12;100505.00;4977411;28;20000;-71
2023/12/30 08:05:09;;;;;;;;;;;;;;;10.29;73.49;100510.47;4977132;28;19925;-71
2023/12/30 08:08:15;;;;;;;;;;;;;;;10.05;74.23;100512.50;4977377;28;20297;-71
2023/12/30 08:11:18;;;;;;;;;;;;;;;10.07;74.95;100516.75;4977742;28;20022;-70
2023/12/30 08:14:21;;;;;;;;;;;;;;;10.22;74.62;100512.53;4976708;28;19972;-72
2023/12/30 08:17:24;;;;;;;;;;;;;;;10.04;74.55;100516.91;4976499;28;20380;-72
2023/12/30 08:20:27;;;;;;;;;;;;;;;10.04;74.61;100516.06;4976763;28;20448;-73
2023/12/30 08:23:30;;;;;;;;;;;;;;;10.16;74.34;100516.28;4976752;28;19924;-72
2023/12/30 08:26:33;;;;;;;;;;;;;;;10.27;74.26;100515.75;4976864;28;19921;-73
2023/12/30 08:29:36;;;;;;;;;;;;;;;10.34;74.68;100509.31;4976875;28;19925;-71
2023/12/30 08:32:39;;;;;;;;;;;;;;;10.23;74.07;100519.44;4977027;28;19921;-72
2023/12/30 08:35:42;;;;;;;;;;;;;;;10.32;74.92;100516.38;4976467;28;20389;-75
2023/12/30 08:38:46;;;;;;;;;;;;;;;10.43;74.36;100521.03;4975922;28;19964;-73
2023/12/30 08:41:49;;;;;;;;;;;;;;;10.25;74.38;100530.66;4975661;28;19961;-71
2023/12/30 08:44:53;;;;;;;;;;;;;;;10.30;75.01;100523.44;4976073;28;20292;-71
2023/12/30 08:47:56;;;;;;;;;;;;;;;10.13;74.96;100528.66;4976109;28;19925;-72
2023/12/30 08:51:00;;;;;;;;;;;;;;;10.22;75.19;100520.38;4976501;28;19921;-71
2023/12/30 08:54:04;;;;;;;;;;;;;;;10.14;74.85;100527.72;4976300;28;19937;-72
2023/12/30 08:57:07;;;;;;;;;;;;;;;10.26;74.77;100527.16;4976252;28;20133;-72
2023/12/30 09:00:11;;;;;;;;;;;;;;;10.31;74.11;100535.59;4974478;28;20001;-71
2023/12/30 09:03:14;;;;;;;;;;;;;;;10.47;73.93;100540.91;4974960;28;20049;-70
2023/12/30 09:06:17;;;;;;;;;;;;;;;10.53;73.72;100524.03;4975138;28;19921;-72
2023/12/30 09:09:21;;;;;;;;;;;;;;;10.57;73.42;100542.09;4975670;28;19968;-72
2023/12/30 09:12:24;;;;;;;;;;;;;;;10.52;73.43;100543.25;4974661;28;19925;-71
2023/12/30 09:15:27;;;;;;;;;;;;;;;10.41;73.31;100542.06;4963629;28;20440;-71
2023/12/30 09:18:31;;;;;;;;;;;;;;;10.44;73.12;100557.56;4974139;28;19920;-72
2023/12/30 09:21:34;;;;;;;;;;;;;;;10.39;73.26;100559.56;4971899;28;19925;-70
2023/12/30 09:24:37;;;;;;;;;;;;;;;10.12;73.96;100566.16;4974027;28;19925;-71
2023/12/30 09:27:42;;;;;;;;;;;;;;;9.96;74.46;100566.09;4970308;28;20008;-71
2023/12/30 09:30:45;;;;;;;;;;;;;;;10.09;73.95;100571.53;4970997;28;19992;-70
2023/12/30 09:33:49;;;;;;;;;;;;;;;10.20;74.30;100564.84;4973666;28;20397;-70
2023/12/30 09:36:52;;;;;;;;;;;;;;;10.26;73.67;100579.41;4971788;28;19969;-70
2023/12/30 09:39:55;;;;;;;;;;;;;;;10.04;73.97;100595.28;4959784;28;19929;-70
2023/12/30 09:43:03;;;;;;;;;;;;;;;9.94;74.13;100589.66;4974218;28;19936;-71
2023/12/30 09:46:06;;;;;;;;;;;;;;;9.99;74.41;100590.28;4974256;28;19924;-71
2023/12/30 09:49:09;;;;;;;;;;;;;;;10.12;74.14;100597.53;4954849;28;19977;-71
2023/12/30 09:52:13;;;;;;;;;;;;;;;10.12;73.96;100597.53;4955030;28;19964;-70
2023/12/30 09:55:16;;;;;;;;;;;;;;;10.18;73.58;100608.50;4954170;28;19922;-69
2023/12/30 09:58:20;;;;;;;;;;;;;;;10.16;73.32;100599.06;4954727;28;20402;-70
2023/12/30 10:01:24;;;;;;;;;;;;;;;10.02;73.36;100603.19;4954514;29;19973;-70
2023/12/30 10:04:27;;;;;;;;;;;;;;;10.15;73.38;100602.59;4954679;28;19926;-73
2023/12/30 10:07:32;;;;;;;;;;;;;;;10.14;73.67;100600.88;4942840;28;19961;-69
2023/12/30 10:10:41;;;;;;;;;;;;;;;10.20;72.70;100605.81;4954628;28;19928;-71
2023/12/30 10:13:44;;;;;;;;;;;;;;;10.31;72.45;100602.72;4934430;29;20006;-71
2023/12/30 10:16:47;;;;;;;;;;;;;;;10.27;72.20;100602.00;4935296;29;19921;-71
2023/12/30 10:19:50;;;;;;;;;;;;;;;10.20;72.06;100600.59;4935269;29;20446;-72
2023/12/30 10:22:53;;;;;;;;;;;;;;;10.27;72.20;100591.53;4935561;29;19977;-71
2023/12/30 10:25:59;;;;;;;;;;;;;;;10.39;72.04;100585.72;4926133;29;19933;-71
2023/12/30 10:29:02;;;;;;;;;;;;;;;10.39;71.41;100582.25;4954434;28;20047;-72
2023/12/30 10:32:08;;;;;;;;;;;;;;;10.63;71.13;100582.78;4953398;28;20247;-72
2023/12/30 10:35:12;;;;;;;;;;;;;;;10.69;70.28;100580.69;4954355;28;20020;-72
2023/12/30 10:38:15;;;;;;;;;;;;;;;10.67;69.90;100582.53;4954252;28;19925;-72
2023/12/30 10:41:18;;;;;;;;;;;;;;;10.62;70.18;100576.69;4954034;28;20449;-72
2023/12/30 10:44:21;;;;;;;;;;;;;;;10.55;69.99;100577.94;4949192;28;19930;-72
2023/12/30 10:47:26;;;;;;;;;;;;;;;10.48;70.57;100582.63;4954387;28;20021;-72
2023/12/30 10:50:31;;;;;;;;;;;;;;;10.70;70.24;100578.91;4964370;28;19978;-72
2023/12/30 10:53:44;;;;;;;;;;;;;;;10.72;69.98;100574.47;4953182;28;20385;-71
2023/12/30 10:56:51;;;;;;;;;;;;;;;10.71;69.92;100575.38;4954123;28;19941;-72
2023/12/30 10:59:57;;;;;;;;;;;;;;;10.65;69.61;100578.31;4952964;28;19922;-71
2023/12/30 11:03:02;;;;;;;;;;;;;;;10.57;69.09;100577.88;4954398;28;19921;-73
2023/12/30 11:06:07;;;;;;;;;;;;;;;10.60;69.05;100573.31;4958159;28;19973;-72
2023/12/30 11:09:11;;;;;;;;;;;;;;;10.69;69.13;100564.16;4960371;28;19921;-71
2023/12/30 11:12:14;;;;;;;;;;;;;;;10.90;69.18;100560.41;4950343;28;19926;-72
2023/12/30 11:15:25;;;;;;;;;;;;;;;10.93;68.83;100559.41;4979635;28;20053;-71
2023/12/30 11:18:48;;;;;;;;;;;;;;;10.85;69.36;100551.97;4979721;28;19925;-70
2023/12/30 11:21:52;;;;;;;;;;;;;;;10.91;68.33;100554.25;4979463;28;19921;-72
2023/12/30 11:24:55;;;;;;;;;;;;;;;10.90;68.41;100552.56;4990973;28;20337;-71
2023/12/30 11:28:11;;;;;;;;;;;;;;;10.88;68.29;100557.03;4983277;28;19981;-70
2023/12/30 11:31:14;;;;;;;;;;;;;;;11.10;68.40;100542.78;4967685;28;20373;-73
2023/12/30 11:34:19;;;;;;;;;;;;;;;11.12;67.50;100540.94;4981137;28;19920;-69
2023/12/30 11:37:22;;;;;;;;;;;;;;;10.97;67.93;100533.91;4980565;28;19984;-70
2023/12/30 11:40:28;;;;;;;;;;;;;;;11.11;68.12;100539.25;4980836;28;19940;-68
2023/12/30 11:43:31;;;;;;;;;;;;;;;11.27;68.07;100541.88;4978431;28;20387;-75
2023/12/30 11:46:34;;;;;;;;;;;;;;;11.28;67.29;100539.19;4982776;28;20298;-71
2023/12/30 11:49:41;;;;;;;;;;;;;;;11.30;66.77;100541.72;4989198;28;19956;-71
2023/12/30 11:53:11;;;;;;;;;;;;;;;11.44;66.51;100517.38;4978781;28;19981;-70
2023/12/30 11:56:15;;;;;;;;;;;;;;;11.52;66.57;100515.16;4980265;28;20389;-70
2023/12/30 11:59:19;;;;;;;;;;;;;;;11.40;65.56;100507.09;4981434;28;20285;-71
2023/12/30 12:02:22;;;;;;;;;;;;;;;11.32;65.86;100513.66;4982147;28;19929;-71
2023/12/30 12:05:26;;;;;;;;;;;;;;;11.10;66.05;100509.63;4985496;28;19981;-71
2023/12/30 12:08:29;;;;;;;;;;;;;;;11.23;66.03;100508.94;4974928;28;20225;-71
2023/12/30 12:11:32;;;;;;;;;;;;;;;11.41;65.81;100513.16;4974321;28;19921;-70
2023/12/30 12:14:35;;;;;;;;;;;;;;;11.28;65.04;100520.84;4988162;28;19960;-71
2023/12/30 12:17:38;;;;;;;;;;;;;;;11.27;65.09;100513.94;4975175;28;19969;-71
2023/12/30 12:20:45;;;;;;;;;;;;;;;11.16;64.84;100508.44;4985419;28;19925;-71
2023/12/30 12:23:49;;;;;;;;;;;;;;;10.94;64.53;100519.22;4983785;28;19925;-72
2023/12/30 12:26:52;;;;;;;;;;;;;;;10.82;65.07;100517.28;4985471;28;19933;-70
2023/12/30 12:29:56;;;;;;;;;;;;;;;10.87;65.38;100503.00;4985609;28;20008;-70
2023/12/30 12:32:59;;;;;;;;;;;;;;;10.92;65.51;100516.69;4983269;28;19944;-79
2023/12/30 12:36:02;;;;;;;;;;;;;;;10.99;65.09;100514.59;4983953;28;19921;-69
2023/12/30 12:39:06;;;;;;;;;;;;;;;10.97;64.57;100507.75;4987339;28;19936;-69
2023/12/30 12:42:09;;;;;;;;;;;;;;;11.03;64.84;100508.25;4982593;28;20396;-69
2023/12/30 12:45:12;;;;;;;;;;;;;;;10.98;64.80;100505.06;4985666;28;20000;-70
2023/12/30 12:48:16;;;;;;;;;;;;;;;11.13;64.82;100500.75;4984752;28;19972;-70
2023/12/30 12:51:19;;;;;;;;;;;;;;;11.30;64.34;100494.59;4984229;28;20004;-70
2023/12/30 12:54:23;;;;;;;;;;;;;;;11.42;63.82;100491.28;4986181;28;19994;-68
2023/12/30 13:01:18;;;;;;;;;;;;;;;11.70;63.94;100487.09;4994450;28;19968;-69
2023/12/30 13:04:23;;;;;;;;;;;;;;;11.82;63.76;100483.78;4994566;28;19925;-69
2023/12/30 13:07:26;;;;;;;;;;;;;;;12.05;63.31;100487.69;4994599;28;19920;-69
2023/12/30 13:10:37;;;;;;;;;;;;;;;12.07;63.51;100480.59;4994592;28;19925;-76
2023/12/30 13:13:40;;;;;;;;;;;;;;;12.26;63.56;100475.09;4994574;28;19925;-78
2023/12/30 13:16:44;;;;;;;;;;;;;;;12.30;63.16;100466.94;4994687;28;19920;-70
2023/12/30 13:19:47;;;;;;;;;;;;;;;12.17;61.59;100462.53;4994452;28;20412;-69
2023/12/30 13:22:55;;;;;;;;;;;;;;;11.80;61.68;100470.75;4994687;28;19977;-69
2023/12/30 13:25:58;;;;;;;;;;;;;;;11.99;62.50;100467.09;4994215;28;20005;-69
2023/12/30 13:29:01;;;;;;;;;;;;;;;12.10;62.29;100462.06;4993154;28;19920;-70
2023/12/30 13:32:04;;;;;;;;;;;;;;;12.17;61.50;100455.53;4994092;28;19959;-69
2023/12/30 13:35:07;;;;;;;;;;;;;;;12.24;60.72;100454.22;4994006;28;19976;-69
2023/12/30 13:38:14;;;;;;;;;;;;;;;11.90;60.61;100460.63;4994034;28;19921;-70
2023/12/30 13:41:22;;;;;;;;;;;;;;;11.83;60.65;100447.00;4994086;28;19968;-69
2023/12/30 13:44:25;;;;;;;;;;;;;;;11.60;60.29;100450.97;4992786;28;19928;-69
2023/12/30 13:50:49;;;;;;;;;;;;;;;11.53;60.33;100462.72;4993758;28;19921;-69
2023/12/30 13:53:52;;;;;;;;;;;;;;;11.45;60.10;100461.47;4993882;28;19920;-69
2023/12/30 13:57:11;;;;;;;;;;;;;;;11.44;60.71;100459.78;4993775;28;20032;-69
2023/12/30 14:00:18;;;;;;;;;;;;;;;11.70;60.80;100463.53;4993679;28;19941;-69
2023/12/30 14:03:22;;;;;;;;;;;;;;;11.65;60.41;100458.56;4993744;28;19921;-69
2023/12/30 14:06:34;;;;;;;;;;;;;;;11.77;60.00;100446.50;4993426;28;19972;-69
2023/12/30 14:09:49;;;;;;;;;;;;;;;11.72;59.55;100438.94;4993368;28;19920;-69
2023/12/30 14:13:00;;;;;;;;;;;;;;;11.71;59.42;100444.25;4993481;28;19971;-69
2023/12/30 14:16:07;;;;;;;;;;;;;;;11.72;59.12;100433.69;4993272;28;19971;-69
2023/12/30 14:19:10;;;;;;;;;;;;;;;11.53;59.23;100435.69;4993329;28;19956;-69
2023/12/30 14:22:14;;;;;;;;;;;;;;;11.62;58.88;100437.78;4993438;28;19957;-69
2023/12/30 14:25:17;;;;;;;;;;;;;;;11.58;58.57;100436.25;4981345;28;19968;-70
2023/12/30 14:28:27;;;;;;;;;;;;;;;11.49;58.87;100437.66;4993300;28;19969;-69
2023/12/30 14:31:30;;;;;;;;;;;;;;;11.57;58.59;100435.41;4993695;28;19921;-69
2023/12/30 14:34:36;;;;;;;;;;;;;;;11.69;58.63;100446.13;4981176;28;19960;-68
2023/12/30 14:37:39;;;;;;;;;;;;;;;11.82;58.30;100447.09;4992356;28;19940;-69
2023/12/30 14:40:42;;;;;;;;;;;;;;;11.87;59.10;100447.72;4991712;28;20384;-68
2023/12/30 14:43:49;;;;;;;;;;;;;;;11.75;59.96;100441.38;4991655;28;19976;-68
2023/12/30 14:46:53;;;;;;;;;;;;;;;11.66;60.14;100443.69;4992118;28;19925;-68
2023/12/30 14:49:56;;;;;;;;;;;;;;;11.79;60.33;100437.63;4992376;28;20349;-68
2023/12/30 14:52:58;;;;;;;;;;;;;;;11.73;60.33;100430.13;4992823;28;19936;-69
2023/12/30 14:56:02;;;;;;;;;;;;;;;11.65;60.11;100432.38;4992882;28;19920;-68
2023/12/30 14:59:04;;;;;;;;;;;;;;;11.51;60.72;100432.31;4992636;28;19955;-70
2023/12/30 15:02:07;;;;;;;;;;;;;;;11.53;61.17;100433.09;4992536;28;19924;-70
2023/12/30 15:05:13;;;;;;;;;;;;;;;11.47;61.86;100428.19;4992508;28;19964;-70
2023/12/30 15:08:16;;;;;;;;;;;;;;;11.23;62.33;100426.06;4980658;28;19967;-69
2023/12/30 15:11:20;;;;;;;;;;;;;;;11.24;62.58;100429.50;4992444;28;19920;-70
2023/12/30 15:14:23;;;;;;;;;;;;;;;11.00;63.63;100424.69;4972248;28;19950;-70
2023/12/30 15:17:26;;;;;;;;;;;;;;;11.08;63.89;100416.44;4972196;28;19996;-69
2023/12/30 15:20:28;;;;;;;;;;;;;;;11.02;64.26;100416.78;4973044;28;20389;-69
2023/12/30 15:23:32;;;;;;;;;;;;;;;10.72;64.82;100412.31;4960892;28;19960;-69
2023/12/30 15:26:35;;;;;;;;;;;;;;;10.68;64.60;100413.41;4972992;28;19925;-70
2023/12/30 15:29:38;;;;;;;;;;;;;;;10.62;66.06;100421.56;4972887;28;20429;-69
2023/12/30 15:32:41;;;;;;;;;;;;;;;10.53;66.32;100425.56;4972906;28;20445;-70
2023/12/30 15:35:44;;;;;;;;;;;;;;;10.22;66.81;100421.91;4973838;28;20016;-69
2023/12/30 15:38:47;;;;;;;;;;;;;;;10.21;68.24;100422.84;4974148;28;19921;-70
2023/12/30 15:41:50;;;;;;;;;;;;;;;10.16;68.68;100424.00;4973987;28;20294;-69
2023/12/30 15:44:53;;;;;;;;;;;;;;;9.93;69.45;100426.03;4974160;28;20413;-68
2023/12/30 15:47:57;;;;;;;;;;;;;;;10.01;69.48;100413.41;4974190;28;20301;-69
2023/12/30 15:51:00;;;;;;;;;;;;;;;10.12;69.76;100417.25;4974010;28;19961;-69
2023/12/30 15:54:03;;;;;;;;;;;;;;;9.84;70.22;100408.22;4978067;28;19921;-70
2023/12/30 15:57:07;;;;;;;;;;;;;;;9.94;70.43;100409.41;4977695;28;19920;-70
2023/12/30 16:00:10;;;;;;;;;;;;;;;9.99;70.06;100404.81;4977621;28;19921;-70